sensor_id;sensor_type;location;lat;lon;timestamp;temperature;humidity
10042;DHT22;5061;49.068;12.058;2023-10-31T00:01:49;11.70;99.90
10042;DHT22;5061;49.068;12.058;2023-10-31T00:05:10;11.70;99.90
10042;DHT22;5061;49.068;12.058;2023-10-31T00:08:30;11.70;99.90
10042;DHT22;5061;49.068;12.058;2023-10-31T00:11:51;11.70;99.90
10042;DHT22;5061;49.068;12.058;2023-10-31T00:15:12;11.70;99.90
10042;DHT22;5061;49.068;12.058;2023-10-31T00:18:32;11.70;99.90
10042;DHT22;5061;49.068;12.058;2023-10-31T00:21:53;11.70;99.90
10042;DHT22;5061;49.068;12.058;2023-10-31T00:25:13;11.60;99.90
10042;DHT22;5061;49.068;12.058;2023-10-31T00:28:37;11.60;99.90
10042;DHT22;5061;49.068;12.058;2023-10-31T00:31:58;11.60;99.90
10042;DHT22;5061;49.068;12.058;2023-10-31T00:35:18;11.60;99.90
10042;DHT22;5061;49.068;12.058;2023-10-31T00:38:39;11.60;99.90
10042;DHT22;5061;49.068;12.058;2023-10-31T00:41:59;11.60;99.90
10042;DHT22;5061;49.068;12.058;2023-10-31T00:45:20;11.50;99.90
10042;DHT22;5061;49.068;12.058;2023-10-31T00:48:41;11.50;99.90
10042;DHT22;5061;49.068;12.058;2023-10-31T00:52:01;11.50;99.90
10042;DHT22;5061;49.068;12.058;2023-10-31T00:55:22;11.50;99.90
10042;DHT22;5061;49.068;12.058;2023-10-31T00:58:42;11.50;99.90
10042;DHT22;5061;49.068;12.058;2023-10-31T01:02:03;11.50;99.90
10042;DHT22;5061;49.068;12.058;2023-10-31T01:05:24;11.50;99.90
10042;DHT22;5061;49.068;12.058;2023-10-31T01:08:44;11.50;99.90
10042;DHT22;5061;49.068;12.058;2023-10-31T01:12:05;11.50;99.90
10042;DHT22;5061;49.068;12.058;2023-10-31T01:15:26;11.50;99.90
10042;DHT22;5061;49.068;12.058;2023-10-31T01:18:47;11.50;99.90
10042;DHT22;5061;49.068;12.058;2023-10-31T01:22:29;11.50;99.90
10042;DHT22;5061;49.068;12.058;2023-10-31T01:34:29;11.50;99.90
10042;DHT22;5061;49.068;12.058;2023-10-31T01:37:50;11.50;99.90
10042;DHT22;5061;49.068;12.058;2023-10-31T01:41:11;11.50;99.90
10042;DHT22;5061;49.068;12.058;2023-10-31T01:44:31;11.40;99.90
10042;DHT22;5061;49.068;12.058;2023-10-31T01:47:52;11.40;99.90
10042;DHT22;5061;49.068;12.058;2023-10-31T01:51:13;11.40;99.90
10042;DHT22;5061;49.068;12.058;2023-10-31T01:54:34;11.40;99.90
10042;DHT22;5061;49.068;12.058;2023-10-31T01:57:55;11.40;99.90
10042;DHT22;5061;49.068;12.058;2023-10-31T02:01:16;11.30;99.90
10042;DHT22;5061;49.068;12.058;2023-10-31T02:04:38;11.30;99.90
10042;DHT22;5061;49.068;12.058;2023-10-31T02:07:58;11.30;99.90
10042;DHT22;5061;49.068;12.058;2023-10-31T02:11:19;11.30;99.90
10042;DHT22;5061;49.068;12.058;2023-10-31T02:14:39;11.30;99.90
10042;DHT22;5061;49.068;12.058;2023-10-31T02:18:00;11.30;99.90
10042;DHT22;5061;49.068;12.058;2023-10-31T02:21:21;11.30;99.90
10042;DHT22;5061;49.068;12.058;2023-10-31T02:24:41;11.20;99.90
10042;DHT22;5061;49.068;12.058;2023-10-31T02:28:05;11.20;99.90
10042;DHT22;5061;49.068;12.058;2023-10-31T02:31:26;11.30;99.90
10042;DHT22;5061;49.068;12.058;2023-10-31T02:34:46;11.30;99.90
10042;DHT22;5061;49.068;12.058;2023-10-31T02:38:07;11.30;99.90
10042;DHT22;5061;49.068;12.058;2023-10-31T02:41:30;11.30;99.90
10042;DHT22;5061;49.068;12.058;2023-10-31T02:44:51;11.30;99.90
10042;DHT22;5061;49.068;12.058;2023-10-31T02:48:12;11.30;99.90
10042;DHT22;5061;49.068;12.058;2023-10-31T02:51:32;11.30;99.90
10042;DHT22;5061;49.068;12.058;2023-10-31T02:54:53;11.30;99.90
10042;DHT22;5061;49.068;12.058;2023-10-31T02:58:14;11.30;99.90
10042;DHT22;5061;49.068;12.058;2023-10-31T03:01:35;11.30;99.90
10042;DHT22;5061;49.068;12.058;2023-10-31T03:04:56;11.30;99.90
10042;DHT22;5061;49.068;12.058;2023-10-31T03:08:16;11.30;99.90
10042;DHT22;5061;49.068;12.058;2023-10-31T03:11:40;11.20;99.90
10042;DHT22;5061;49.068;12.058;2023-10-31T03:15:20;11.20;99.90
10042;DHT22;5061;49.068;12.058;2023-10-31T03:18:40;11.20;99.90
10042;DHT22;5061;49.068;12.058;2023-10-31T03:22:01;11.10;99.90
10042;DHT22;5061;49.068;12.058;2023-10-31T03:25:21;11.10;99.90
10042;DHT22;5061;49.068;12.058;2023-10-31T03:28:43;11.10;99.90
10042;DHT22;5061;49.068;12.058;2023-10-31T03:32:04;11.10;99.90
10042;DHT22;5061;49.068;12.058;2023-10-31T03:35:25;11.00;99.90
10042;DHT22;5061;49.068;12.058;2023-10-31T03:38:48;11.00;99.90
10042;DHT22;5061;49.068;12.058;2023-10-31T03:42:09;11.00;99.90
10042;DHT22;5061;49.068;12.058;2023-10-31T03:45:30;11.00;99.90
10042;DHT22;5061;49.068;12.058;2023-10-31T03:48:50;11.00;99.90
10042;DHT22;5061;49.068;12.058;2023-10-31T03:52:11;11.00;99.90
10042;DHT22;5061;49.068;12.058;2023-10-31T03:55:32;11.00;99.90
10042;DHT22;5061;49.068;12.058;2023-10-31T03:58:52;11.00;99.90
10042;DHT22;5061;49.068;12.058;2023-10-31T04:02:13;11.00;99.90
10042;DHT22;5061;49.068;12.058;2023-10-31T04:05:34;10.90;99.90
10042;DHT22;5061;49.068;12.058;2023-10-31T04:08:58;10.90;99.90
10042;DHT22;5061;49.068;12.058;2023-10-31T04:12:19;10.80;99.90
10042;DHT22;5061;49.068;12.058;2023-10-31T04:15:40;10.80;99.90
10042;DHT22;5061;49.068;12.058;2023-10-31T04:19:00;10.70;99.90
10042;DHT22;5061;49.068;12.058;2023-10-31T04:22:24;10.70;99.90
10042;DHT22;5061;49.068;12.058;2023-10-31T04:25:44;10.70;99.90
10042;DHT22;5061;49.068;12.058;2023-10-31T04:29:09;10.70;99.90
10042;DHT22;5061;49.068;12.058;2023-10-31T04:32:30;10.70;99.90
10042;DHT22;5061;49.068;12.058;2023-10-31T04:35:50;10.70;99.90
10042;DHT22;5061;49.068;12.058;2023-10-31T04:39:11;10.60;99.90
10042;DHT22;5061;49.068;12.058;2023-10-31T04:42:42;10.60;99.90
10042;DHT22;5061;49.068;12.058;2023-10-31T04:46:02;10.50;99.90
10042;DHT22;5061;49.068;12.058;2023-10-31T04:49:23;10.50;99.90
10042;DHT22;5061;49.068;12.058;2023-10-31T04:52:44;10.40;99.90
10042;DHT22;5061;49.068;12.058;2023-10-31T04:56:04;10.30;99.90
10042;DHT22;5061;49.068;12.058;2023-10-31T04:59:31;10.30;99.90
10042;DHT22;5061;49.068;12.058;2023-10-31T05:02:52;10.30;99.90
10042;DHT22;5061;49.068;12.058;2023-10-31T05:06:13;10.20;99.90
10042;DHT22;5061;49.068;12.058;2023-10-31T05:09:34;10.20;99.90
10042;DHT22;5061;49.068;12.058;2023-10-31T05:12:55;10.20;99.90
10042;DHT22;5061;49.068;12.058;2023-10-31T05:16:18;10.10;99.90
10042;DHT22;5061;49.068;12.058;2023-10-31T05:19:39;10.20;99.90
10042;DHT22;5061;49.068;12.058;2023-10-31T05:23:00;10.10;99.90
10042;DHT22;5061;49.068;12.058;2023-10-31T05:26:20;10.10;99.90
10042;DHT22;5061;49.068;12.058;2023-10-31T05:29:41;10.10;99.90
10042;DHT22;5061;49.068;12.058;2023-10-31T05:33:02;10.00;99.90
10042;DHT22;5061;49.068;12.058;2023-10-31T05:36:24;10.00;99.90
10042;DHT22;5061;49.068;12.058;2023-10-31T05:39:44;10.00;99.90
10042;DHT22;5061;49.068;12.058;2023-10-31T05:43:05;9.90;99.90
10042;DHT22;5061;49.068;12.058;2023-10-31T05:46:26;9.90;99.90
10042;DHT22;5061;49.068;12.058;2023-10-31T05:49:47;9.90;99.90
10042;DHT22;5061;49.068;12.058;2023-10-31T05:53:08;9.80;99.90
10042;DHT22;5061;49.068;12.058;2023-10-31T05:56:37;9.80;99.90
10042;DHT22;5061;49.068;12.058;2023-10-31T06:00:01;9.70;99.90
10042;DHT22;5061;49.068;12.058;2023-10-31T06:03:22;9.70;99.90
10042;DHT22;5061;49.068;12.058;2023-10-31T06:06:51;9.70;99.90
10042;DHT22;5061;49.068;12.058;2023-10-31T06:10:12;9.70;99.90
10042;DHT22;5061;49.068;12.058;2023-10-31T06:13:33;9.60;99.90
10042;DHT22;5061;49.068;12.058;2023-10-31T06:16:54;9.60;99.90
10042;DHT22;5061;49.068;12.058;2023-10-31T06:20:16;9.60;99.90
10042;DHT22;5061;49.068;12.058;2023-10-31T06:23:38;9.60;99.90
10042;DHT22;5061;49.068;12.058;2023-10-31T06:27:03;9.60;99.90
10042;DHT22;5061;49.068;12.058;2023-10-31T06:30:23;9.60;99.90
10042;DHT22;5061;49.068;12.058;2023-10-31T06:33:47;9.60;99.90
10042;DHT22;5061;49.068;12.058;2023-10-31T06:37:07;9.60;99.90
10042;DHT22;5061;49.068;12.058;2023-10-31T06:40:28;9.60;99.90
10042;DHT22;5061;49.068;12.058;2023-10-31T06:43:49;9.60;99.90
10042;DHT22;5061;49.068;12.058;2023-10-31T06:47:09;9.60;99.90
10042;DHT22;5061;49.068;12.058;2023-10-31T06:50:30;9.60;99.90
10042;DHT22;5061;49.068;12.058;2023-10-31T06:53:53;9.60;99.90
10042;DHT22;5061;49.068;12.058;2023-10-31T06:57:13;9.60;99.90
10042;DHT22;5061;49.068;12.058;2023-10-31T07:00:35;9.60;99.90
10042;DHT22;5061;49.068;12.058;2023-10-31T07:03:57;9.70;99.90
10042;DHT22;5061;49.068;12.058;2023-10-31T07:07:18;9.70;99.90
10042;DHT22;5061;49.068;12.058;2023-10-31T07:10:39;9.70;99.90
10042;DHT22;5061;49.068;12.058;2023-10-31T07:14:01;9.70;99.90
10042;DHT22;5061;49.068;12.058;2023-10-31T07:17:22;9.70;99.90
10042;DHT22;5061;49.068;12.058;2023-10-31T07:20:43;9.70;99.90
10042;DHT22;5061;49.068;12.058;2023-10-31T07:24:04;9.70;99.90
10042;DHT22;5061;49.068;12.058;2023-10-31T07:27:24;9.80;99.90
10042;DHT22;5061;49.068;12.058;2023-10-31T07:30:45;9.80;99.90
10042;DHT22;5061;49.068;12.058;2023-10-31T07:34:05;9.90;99.90
10042;DHT22;5061;49.068;12.058;2023-10-31T07:37:26;9.90;99.90
10042;DHT22;5061;49.068;12.058;2023-10-31T07:40:47;10.00;99.90
10042;DHT22;5061;49.068;12.058;2023-10-31T07:44:08;10.10;99.90
10042;DHT22;5061;49.068;12.058;2023-10-31T07:47:29;10.10;99.90
10042;DHT22;5061;49.068;12.058;2023-10-31T07:50:49;10.20;99.90
10042;DHT22;5061;49.068;12.058;2023-10-31T07:54:10;10.20;99.90
10042;DHT22;5061;49.068;12.058;2023-10-31T07:57:31;10.20;99.90
10042;DHT22;5061;49.068;12.058;2023-10-31T08:00:51;10.30;99.90
10042;DHT22;5061;49.068;12.058;2023-10-31T08:04:12;10.30;99.90
10042;DHT22;5061;49.068;12.058;2023-10-31T08:07:35;10.40;99.90
10042;DHT22;5061;49.068;12.058;2023-10-31T08:10:56;10.40;99.90
10042;DHT22;5061;49.068;12.058;2023-10-31T08:14:18;10.50;99.90
10042;DHT22;5061;49.068;12.058;2023-10-31T08:17:39;10.50;99.90
10042;DHT22;5061;49.068;12.058;2023-10-31T08:21:00;10.50;99.90
10042;DHT22;5061;49.068;12.058;2023-10-31T08:24:21;10.50;99.90
10042;DHT22;5061;49.068;12.058;2023-10-31T08:27:41;10.60;99.90
10042;DHT22;5061;49.068;12.058;2023-10-31T08:31:02;10.60;99.90
10042;DHT22;5061;49.068;12.058;2023-10-31T08:34:24;10.70;99.90
10042;DHT22;5061;49.068;12.058;2023-10-31T08:37:44;10.70;99.90
10042;DHT22;5061;49.068;12.058;2023-10-31T08:41:05;10.70;99.90
10042;DHT22;5061;49.068;12.058;2023-10-31T08:44:26;10.80;99.90
10042;DHT22;5061;49.068;12.058;2023-10-31T08:47:49;10.80;99.90
10042;DHT22;5061;49.068;12.058;2023-10-31T08:51:10;10.80;99.90
10042;DHT22;5061;49.068;12.058;2023-10-31T08:54:31;10.80;99.90
10042;DHT22;5061;49.068;12.058;2023-10-31T08:57:51;10.80;99.90
10042;DHT22;5061;49.068;12.058;2023-10-31T09:01:12;10.70;99.90
10042;DHT22;5061;49.068;12.058;2023-10-31T09:04:33;10.70;99.90
10042;DHT22;5061;49.068;12.058;2023-10-31T09:07:54;10.70;99.90
10042;DHT22;5061;49.068;12.058;2023-10-31T09:11:14;10.70;99.90
10042;DHT22;5061;49.068;12.058;2023-10-31T09:14:35;10.80;99.90
10042;DHT22;5061;49.068;12.058;2023-10-31T09:17:57;10.70;99.90
10042;DHT22;5061;49.068;12.058;2023-10-31T09:21:18;10.70;99.90
10042;DHT22;5061;49.068;12.058;2023-10-31T09:24:38;10.60;99.90
10042;DHT22;5061;49.068;12.058;2023-10-31T09:28:00;10.70;99.90
10042;DHT22;5061;49.068;12.058;2023-10-31T09:31:21;10.70;99.90
10042;DHT22;5061;49.068;12.058;2023-10-31T09:34:41;10.70;99.90
10042;DHT22;5061;49.068;12.058;2023-10-31T09:38:02;10.70;99.90
10042;DHT22;5061;49.068;12.058;2023-10-31T09:41:23;10.70;99.90
10042;DHT22;5061;49.068;12.058;2023-10-31T09:44:44;10.70;99.90
10042;DHT22;5061;49.068;12.058;2023-10-31T09:48:05;10.60;99.90
10042;DHT22;5061;49.068;12.058;2023-10-31T09:51:27;10.60;99.90
10042;DHT22;5061;49.068;12.058;2023-10-31T09:54:49;10.60;99.90
10042;DHT22;5061;49.068;12.058;2023-10-31T09:58:12;10.60;99.90
10042;DHT22;5061;49.068;12.058;2023-10-31T10:01:33;10.60;99.90
10042;DHT22;5061;49.068;12.058;2023-10-31T10:04:54;10.70;99.90
10042;DHT22;5061;49.068;12.058;2023-10-31T10:08:14;10.70;99.90
10042;DHT22;5061;49.068;12.058;2023-10-31T10:11:35;10.70;99.90
10042;DHT22;5061;49.068;12.058;2023-10-31T10:14:57;10.80;99.90
10042;DHT22;5061;49.068;12.058;2023-10-31T10:18:25;10.90;99.90
10042;DHT22;5061;49.068;12.058;2023-10-31T10:21:48;10.80;99.90
10042;DHT22;5061;49.068;12.058;2023-10-31T10:25:10;10.80;99.90
10042;DHT22;5061;49.068;12.058;2023-10-31T10:28:32;10.80;99.90
10042;DHT22;5061;49.068;12.058;2023-10-31T10:31:53;10.70;99.90
10042;DHT22;5061;49.068;12.058;2023-10-31T10:35:14;10.70;99.90
10042;DHT22;5061;49.068;12.058;2023-10-31T10:38:36;10.60;99.90
10042;DHT22;5061;49.068;12.058;2023-10-31T10:41:58;10.60;99.90
10042;DHT22;5061;49.068;12.058;2023-10-31T10:45:21;10.50;99.90
10042;DHT22;5061;49.068;12.058;2023-10-31T10:48:45;10.40;99.90
10042;DHT22;5061;49.068;12.058;2023-10-31T10:55:39;10.40;99.90
10042;DHT22;5061;49.068;12.058;2023-10-31T10:59:20;10.40;99.90
10042;DHT22;5061;49.068;12.058;2023-10-31T11:02:46;10.40;99.90
10042;DHT22;5061;49.068;12.058;2023-10-31T11:06:09;10.40;99.90
10042;DHT22;5061;49.068;12.058;2023-10-31T11:09:31;10.40;99.90
10042;DHT22;5061;49.068;12.058;2023-10-31T11:12:51;10.40;99.90
10042;DHT22;5061;49.068;12.058;2023-10-31T11:16:20;10.20;99.90
10042;DHT22;5061;49.068;12.058;2023-10-31T11:19:45;10.20;99.90
10042;DHT22;5061;49.068;12.058;2023-10-31T11:23:06;10.00;99.90
10042;DHT22;5061;49.068;12.058;2023-10-31T11:26:28;9.90;99.90
10042;DHT22;5061;49.068;12.058;2023-10-31T11:29:50;9.90;99.90
10042;DHT22;5061;49.068;12.058;2023-10-31T11:33:15;9.80;99.90
10042;DHT22;5061;49.068;12.058;2023-10-31T11:36:36;9.70;99.90
10042;DHT22;5061;49.068;12.058;2023-10-31T11:40:23;9.70;99.90
10042;DHT22;5061;49.068;12.058;2023-10-31T11:47:04;9.70;99.90
10042;DHT22;5061;49.068;12.058;2023-10-31T11:50:25;9.80;99.90
10042;DHT22;5061;49.068;12.058;2023-10-31T11:53:48;9.80;99.90
10042;DHT22;5061;49.068;12.058;2023-10-31T11:57:10;9.90;99.90
10042;DHT22;5061;49.068;12.058;2023-10-31T12:00:30;9.90;99.90
10042;DHT22;5061;49.068;12.058;2023-10-31T12:03:51;10.00;99.90
10042;DHT22;5061;49.068;12.058;2023-10-31T12:07:12;10.00;99.90
10042;DHT22;5061;49.068;12.058;2023-10-31T12:10:32;10.10;99.90
10042;DHT22;5061;49.068;12.058;2023-10-31T12:13:59;10.20;99.90
10042;DHT22;5061;49.068;12.058;2023-10-31T12:17:21;10.20;99.90
10042;DHT22;5061;49.068;12.058;2023-10-31T12:20:51;10.30;99.90
10042;DHT22;5061;49.068;12.058;2023-10-31T12:24:15;10.30;99.90
10042;DHT22;5061;49.068;12.058;2023-10-31T12:31:04;10.40;99.90
10042;DHT22;5061;49.068;12.058;2023-10-31T12:34:26;10.40;99.90
10042;DHT22;5061;49.068;12.058;2023-10-31T12:37:48;10.40;99.90
10042;DHT22;5061;49.068;12.058;2023-10-31T12:41:10;10.50;99.90
10042;DHT22;5061;49.068;12.058;2023-10-31T12:44:30;10.50;99.90
10042;DHT22;5061;49.068;12.058;2023-10-31T12:48:08;10.60;99.90
10042;DHT22;5061;49.068;12.058;2023-10-31T12:51:29;10.70;99.90
10042;DHT22;5061;49.068;12.058;2023-10-31T12:54:50;10.80;99.90
10042;DHT22;5061;49.068;12.058;2023-10-31T12:58:20;10.90;99.90
10042;DHT22;5061;49.068;12.058;2023-10-31T13:01:44;11.00;99.90
10042;DHT22;5061;49.068;12.058;2023-10-31T13:05:15;11.00;99.90
10042;DHT22;5061;49.068;12.058;2023-10-31T13:08:36;11.00;99.90
10042;DHT22;5061;49.068;12.058;2023-10-31T13:12:05;11.10;99.90
10042;DHT22;5061;49.068;12.058;2023-10-31T13:15:26;11.00;99.90
10042;DHT22;5061;49.068;12.058;2023-10-31T13:18:47;11.00;99.90
10042;DHT22;5061;49.068;12.058;2023-10-31T13:22:07;11.00;99.90
10042;DHT22;5061;49.068;12.058;2023-10-31T13:25:29;11.10;99.90
10042;DHT22;5061;49.068;12.058;2023-10-31T13:28:51;11.00;99.90
10042;DHT22;5061;49.068;12.058;2023-10-31T13:32:13;11.00;99.90
10042;DHT22;5061;49.068;12.058;2023-10-31T13:35:33;10.90;99.90
10042;DHT22;5061;49.068;12.058;2023-10-31T13:38:54;10.90;99.90
10042;DHT22;5061;49.068;12.058;2023-10-31T13:42:15;10.90;99.90
10042;DHT22;5061;49.068;12.058;2023-10-31T13:45:35;10.90;99.90
10042;DHT22;5061;49.068;12.058;2023-10-31T13:48:56;10.80;99.90
10042;DHT22;5061;49.068;12.058;2023-10-31T13:52:17;10.80;99.90
10042;DHT22;5061;49.068;12.058;2023-10-31T13:55:37;10.80;99.90
10042;DHT22;5061;49.068;12.058;2023-10-31T13:58:58;10.80;99.90
10042;DHT22;5061;49.068;12.058;2023-10-31T14:02:18;10.90;99.90
10042;DHT22;5061;49.068;12.058;2023-10-31T14:05:39;10.90;99.90
10042;DHT22;5061;49.068;12.058;2023-10-31T14:09:01;10.90;99.90
10042;DHT22;5061;49.068;12.058;2023-10-31T14:12:25;10.90;99.90
10042;DHT22;5061;49.068;12.058;2023-10-31T14:15:46;10.90;99.90
10042;DHT22;5061;49.068;12.058;2023-10-31T14:19:07;10.90;99.90
10042;DHT22;5061;49.068;12.058;2023-10-31T14:22:28;10.90;99.90
10042;DHT22;5061;49.068;12.058;2023-10-31T14:25:51;10.90;99.90
10042;DHT22;5061;49.068;12.058;2023-10-31T14:29:16;10.90;99.90
10042;DHT22;5061;49.068;12.058;2023-10-31T14:32:36;10.90;99.90
10042;DHT22;5061;49.068;12.058;2023-10-31T14:36:00;10.90;99.90
10042;DHT22;5061;49.068;12.058;2023-10-31T14:39:20;11.00;99.90
10042;DHT22;5061;49.068;12.058;2023-10-31T14:42:43;10.90;99.90
10042;DHT22;5061;49.068;12.058;2023-10-31T14:46:04;10.90;99.90
10042;DHT22;5061;49.068;12.058;2023-10-31T14:49:25;10.90;99.90
10042;DHT22;5061;49.068;12.058;2023-10-31T14:52:46;10.90;99.90
10042;DHT22;5061;49.068;12.058;2023-10-31T14:56:07;10.90;99.90
10042;DHT22;5061;49.068;12.058;2023-10-31T14:59:28;10.90;99.90
10042;DHT22;5061;49.068;12.058;2023-10-31T15:02:49;10.90;99.90
10042;DHT22;5061;49.068;12.058;2023-10-31T15:06:09;10.90;99.90
10042;DHT22;5061;49.068;12.058;2023-10-31T15:09:30;10.90;99.90
10042;DHT22;5061;49.068;12.058;2023-10-31T15:12:51;10.80;99.90
10042;DHT22;5061;49.068;12.058;2023-10-31T15:16:12;10.80;99.90
10042;DHT22;5061;49.068;12.058;2023-10-31T15:19:33;10.80;99.90
10042;DHT22;5061;49.068;12.058;2023-10-31T15:22:53;10.80;99.90
10042;DHT22;5061;49.068;12.058;2023-10-31T15:26:14;10.80;99.90
10042;DHT22;5061;49.068;12.058;2023-10-31T15:29:35;10.80;99.90
10042;DHT22;5061;49.068;12.058;2023-10-31T15:32:56;10.70;99.90
10042;DHT22;5061;49.068;12.058;2023-10-31T15:36:16;10.70;99.90
10042;DHT22;5061;49.068;12.058;2023-10-31T15:39:38;10.70;99.90
10042;DHT22;5061;49.068;12.058;2023-10-31T15:46:28;10.70;99.90
10042;DHT22;5061;49.068;12.058;2023-10-31T15:49:49;10.60;99.90
10042;DHT22;5061;49.068;12.058;2023-10-31T15:53:10;10.60;99.90
10042;DHT22;5061;49.068;12.058;2023-10-31T15:56:30;10.60;99.90
10042;DHT22;5061;49.068;12.058;2023-10-31T15:59:51;10.50;99.90
10042;DHT22;5061;49.068;12.058;2023-10-31T16:03:12;10.50;99.90
10042;DHT22;5061;49.068;12.058;2023-10-31T16:06:32;10.40;99.90
10042;DHT22;5061;49.068;12.058;2023-10-31T16:09:53;10.30;99.90
10042;DHT22;5061;49.068;12.058;2023-10-31T16:13:14;10.30;99.90
10042;DHT22;5061;49.068;12.058;2023-10-31T16:16:34;10.20;99.90
10042;DHT22;5061;49.068;12.058;2023-10-31T16:19:55;10.10;99.90
10042;DHT22;5061;49.068;12.058;2023-10-31T16:23:16;10.10;99.90
10042;DHT22;5061;49.068;12.058;2023-10-31T16:26:39;10.10;99.90
10042;DHT22;5061;49.068;12.058;2023-10-31T16:30:00;10.10;99.90
10042;DHT22;5061;49.068;12.058;2023-10-31T16:33:20;10.00;99.90
10042;DHT22;5061;49.068;12.058;2023-10-31T16:36:41;9.90;99.90
10042;DHT22;5061;49.068;12.058;2023-10-31T16:40:02;9.90;99.90
10042;DHT22;5061;49.068;12.058;2023-10-31T16:43:23;9.80;99.90
10042;DHT22;5061;49.068;12.058;2023-10-31T16:46:44;9.80;99.90
10042;DHT22;5061;49.068;12.058;2023-10-31T16:50:07;9.80;99.90
10042;DHT22;5061;49.068;12.058;2023-10-31T16:53:28;9.80;99.90
10042;DHT22;5061;49.068;12.058;2023-10-31T16:56:49;9.80;99.90
10042;DHT22;5061;49.068;12.058;2023-10-31T17:00:10;9.90;99.90
10042;DHT22;5061;49.068;12.058;2023-10-31T17:03:30;9.80;99.90
10042;DHT22;5061;49.068;12.058;2023-10-31T17:06:51;9.80;99.90
10042;DHT22;5061;49.068;12.058;2023-10-31T17:10:12;9.70;99.90
10042;DHT22;5061;49.068;12.058;2023-10-31T17:13:33;9.60;99.90
10042;DHT22;5061;49.068;12.058;2023-10-31T17:16:54;9.60;99.90
10042;DHT22;5061;49.068;12.058;2023-10-31T17:20:15;9.60;99.90
10042;DHT22;5061;49.068;12.058;2023-10-31T17:23:36;9.50;99.90
10042;DHT22;5061;49.068;12.058;2023-10-31T17:26:56;9.50;99.90
10042;DHT22;5061;49.068;12.058;2023-10-31T17:30:18;9.40;99.90
10042;DHT22;5061;49.068;12.058;2023-10-31T17:33:38;9.40;99.90
10042;DHT22;5061;49.068;12.058;2023-10-31T17:37:03;9.30;99.90
10042;DHT22;5061;49.068;12.058;2023-10-31T17:40:24;9.30;99.90
10042;DHT22;5061;49.068;12.058;2023-10-31T17:43:45;9.30;99.90
10042;DHT22;5061;49.068;12.058;2023-10-31T17:47:06;9.20;99.90
10042;DHT22;5061;49.068;12.058;2023-10-31T17:50:26;9.20;99.90
10042;DHT22;5061;49.068;12.058;2023-10-31T17:53:52;9.20;99.90
10042;DHT22;5061;49.068;12.058;2023-10-31T17:57:14;9.30;99.90
10042;DHT22;5061;49.068;12.058;2023-10-31T18:00:38;9.30;99.90
10042;DHT22;5061;49.068;12.058;2023-10-31T18:03:59;9.30;99.90
10042;DHT22;5061;49.068;12.058;2023-10-31T18:07:20;9.40;99.90
10042;DHT22;5061;49.068;12.058;2023-10-31T18:10:41;9.40;99.90
10042;DHT22;5061;49.068;12.058;2023-10-31T18:14:02;9.30;99.90
10042;DHT22;5061;49.068;12.058;2023-10-31T18:17:22;9.20;99.90
10042;DHT22;5061;49.068;12.058;2023-10-31T18:20:43;9.20;99.90
10042;DHT22;5061;49.068;12.058;2023-10-31T18:24:04;9.10;99.90
10042;DHT22;5061;49.068;12.058;2023-10-31T18:27:25;9.00;99.90
10042;DHT22;5061;49.068;12.058;2023-10-31T18:30:46;8.90;99.90
10042;DHT22;5061;49.068;12.058;2023-10-31T18:34:06;8.80;99.90
10042;DHT22;5061;49.068;12.058;2023-10-31T18:37:27;8.90;99.90
10042;DHT22;5061;49.068;12.058;2023-10-31T18:40:49;8.90;99.90
10042;DHT22;5061;49.068;12.058;2023-10-31T18:44:10;8.90;99.90
10042;DHT22;5061;49.068;12.058;2023-10-31T18:47:31;8.90;99.90
10042;DHT22;5061;49.068;12.058;2023-10-31T18:50:51;9.00;99.90
10042;DHT22;5061;49.068;12.058;2023-10-31T18:54:12;9.00;99.90
10042;DHT22;5061;49.068;12.058;2023-10-31T18:57:32;9.00;99.90
10042;DHT22;5061;49.068;12.058;2023-10-31T19:00:53;9.10;99.90
10042;DHT22;5061;49.068;12.058;2023-10-31T19:04:14;9.10;99.90
10042;DHT22;5061;49.068;12.058;2023-10-31T19:07:37;9.20;99.90
10042;DHT22;5061;49.068;12.058;2023-10-31T19:11:00;9.10;99.90
10042;DHT22;5061;49.068;12.058;2023-10-31T19:14:20;9.20;99.90
10042;DHT22;5061;49.068;12.058;2023-10-31T19:17:41;9.20;99.90
10042;DHT22;5061;49.068;12.058;2023-10-31T19:21:03;9.20;99.90
10042;DHT22;5061;49.068;12.058;2023-10-31T19:24:24;9.20;99.90
10042;DHT22;5061;49.068;12.058;2023-10-31T19:27:44;9.20;99.90
10042;DHT22;5061;49.068;12.058;2023-10-31T19:31:05;9.20;99.90
10042;DHT22;5061;49.068;12.058;2023-10-31T19:34:26;9.20;99.90
10042;DHT22;5061;49.068;12.058;2023-10-31T19:37:47;9.20;99.90
10042;DHT22;5061;49.068;12.058;2023-10-31T19:41:08;9.30;99.90
10042;DHT22;5061;49.068;12.058;2023-10-31T19:44:29;9.30;99.90
10042;DHT22;5061;49.068;12.058;2023-10-31T19:47:49;9.40;99.90
10042;DHT22;5061;49.068;12.058;2023-10-31T19:51:10;9.40;99.90
10042;DHT22;5061;49.068;12.058;2023-10-31T19:54:33;9.40;99.90
10042;DHT22;5061;49.068;12.058;2023-10-31T19:57:54;9.40;99.90
10042;DHT22;5061;49.068;12.058;2023-10-31T20:01:17;9.40;99.90
10042;DHT22;5061;49.068;12.058;2023-10-31T20:04:38;9.40;99.90
10042;DHT22;5061;49.068;12.058;2023-10-31T20:07:59;9.40;99.90
10042;DHT22;5061;49.068;12.058;2023-10-31T20:11:19;9.50;99.90
10042;DHT22;5061;49.068;12.058;2023-10-31T20:14:40;9.40;99.90
10042;DHT22;5061;49.068;12.058;2023-10-31T20:18:01;9.50;99.90
10042;DHT22;5061;49.068;12.058;2023-10-31T20:21:22;9.40;99.90
10042;DHT22;5061;49.068;12.058;2023-10-31T20:24:42;9.40;99.90
10042;DHT22;5061;49.068;12.058;2023-10-31T20:28:03;9.50;99.90
10042;DHT22;5061;49.068;12.058;2023-10-31T20:31:24;9.50;99.90
10042;DHT22;5061;49.068;12.058;2023-10-31T20:34:45;9.50;99.90
10042;DHT22;5061;49.068;12.058;2023-10-31T20:38:05;9.50;99.90
10042;DHT22;5061;49.068;12.058;2023-10-31T20:41:26;9.50;99.90
10042;DHT22;5061;49.068;12.058;2023-10-31T20:44:47;9.50;99.90
10042;DHT22;5061;49.068;12.058;2023-10-31T20:48:10;9.50;99.90
10042;DHT22;5061;49.068;12.058;2023-10-31T20:51:32;9.50;99.90
10042;DHT22;5061;49.068;12.058;2023-10-31T20:54:53;9.40;99.90
10042;DHT22;5061;49.068;12.058;2023-10-31T20:58:14;9.40;99.90
10042;DHT22;5061;49.068;12.058;2023-10-31T21:01:35;9.40;99.90
10042;DHT22;5061;49.068;12.058;2023-10-31T21:04:56;9.40;99.90
10042;DHT22;5061;49.068;12.058;2023-10-31T21:08:17;9.40;99.90
10042;DHT22;5061;49.068;12.058;2023-10-31T21:11:38;9.30;99.90
10042;DHT22;5061;49.068;12.058;2023-10-31T21:14:58;9.40;99.90
10042;DHT22;5061;49.068;12.058;2023-10-31T21:18:22;9.30;99.90
10042;DHT22;5061;49.068;12.058;2023-10-31T21:21:42;9.30;99.90
10042;DHT22;5061;49.068;12.058;2023-10-31T21:25:03;9.30;99.90
10042;DHT22;5061;49.068;12.058;2023-10-31T21:28:24;9.40;99.90
10042;DHT22;5061;49.068;12.058;2023-10-31T21:31:45;9.30;99.90
10042;DHT22;5061;49.068;12.058;2023-10-31T21:35:06;9.40;99.90
10042;DHT22;5061;49.068;12.058;2023-10-31T21:38:27;9.40;99.90
10042;DHT22;5061;49.068;12.058;2023-10-31T21:41:48;9.40;99.90
10042;DHT22;5061;49.068;12.058;2023-10-31T21:45:09;9.40;99.90